Number Eight, Missouri
Current Conditions -  °F | °C
As of 3:55 PM on Tuesday 21 Oct 2014 (Local Time) from KIRK Reporting Station
Clear Clear  
Wind Chill: 66°   Ceiling: Unl
Heat Index: 66°   Visibility: 10mi
Dew Point: 46°   Wind: 5mph
Humidity: 48%   Direction: 70°ENE
Pressure: 30.13"   Gusts: NA
Location:  39.7769°N, 92.5616°W
Report Text: KIRK 212055Z AUTO 07004KT 10SM CLR 19/08 A3013 RMK AO2 SLP206 T01890078 55008
Loading
Personal Weather Stations






























Interactive Weather Map
Tropical Storm Tracking
New forecast layout! Learn more

10-Day Weather Forecast

Advertisements
Track Severe Weather on mobile